Keene Valley, New York
Current Conditions -  °F | °C
As of 12:51 PM on Sunday 25 Jan 2015 (Local Time) from KSLK Reporting Station
Overcast Overcast  
Wind Chill: -10°   Ceiling: 2400
Heat Index:   Visibility: 7mi
Dew Point: -4°   Wind: 10mph
Humidity: 66%   Direction: 300°WNW
Pressure: 29.7"   Gusts: NA
Location:  44.19°N, 73.79°W
Report Text: KSLK 251751Z AUTO 30009KT 7SM OVC024 M15/M20 A2970 RMK AO2 SNB30E40 SLP087 P0000 60000 T11501200 11128 21167
Loading
Personal Weather Stations






























Interactive Weather Map New forecast layout! Learn more

10-Day Weather Forecast

Advertisements
Track Severe Weather on mobile